CST,Max TemperatureF,Mean TemperatureF,Min TemperatureF,Max Dew PointF,MeanDew PointF,Min DewpointF,Max Humidity, Mean Humidity, Min Humidity, Max Sea Level PressureIn, Mean Sea Level PressureIn, Min Sea Level PressureIn, Max VisibilityMiles, Mean VisibilityMiles, Min VisibilityMiles, Max Wind SpeedMPH, Mean Wind SpeedMPH, Max Gust SpeedMPH,PrecipitationIn, CloudCover, Events, WindDirDegrees
2013-1-1,21,5,-11,19,5,-17,100,89,77,30.22,30.09,29.94,10,9,2,14,4,18,0.00,7,Snow,203
2013-1-2,24,16,8,23,14,7,100,94,86,29.93,29.89,29.87,10,5,2,13,8,,0.00,6,Snow,218
2013-1-3,17,8,-2,14,5,-6,93,86,73,30.25,30.15,30.00,10,10,5,17,11,,0.00,2,Snow,247
2013-1-4,32,19,5,30,12,1,100,82,41,30.08,30.02,29.96,10,10,7,17,11,,0.00,0,,258
2013-1-5,17,8,0,16,6,-2,100,89,79,30.07,29.94,29.84,10,7,0,20,6,,0.00,2,Fog-Snow,292
2013-1-6,19,11,3,18,10,0,100,92,85,30.19,30.08,29.84,10,7,1,17,8,21,0.00,5,Snow,206
2013-1-7,35,27,19,27,20,16,100,83,65,29.93,29.85,29.79,10,10,10,17,12,20,0.00,0,,229
2013-1-8,32,21,10,30,20,9,100,91,55,29.92,29.81,29.68,10,8,0,18,7,29,0.00,2,Fog-Snow,165
2013-1-9,30,24,19,28,20,16,100,80,69,30.29,30.13,29.86,10,10,4,29,15,38,0.00,0,,229
2013-1-10,37,32,28,32,27,21,100,77,52,30.15,29.96,29.63,10,8,1,28,19,34,0.18,3,Rain,158
2013-1-11,33,26,19,34,32,18,100,99,93,29.61,29.44,29.34,10,2,0,21,9,25,0.09,8,Fog-Snow,165
2013-1-12,17,8,0,18,1,-6,100,80,72,30.05,29.81,29.38,10,7,1,32,19,39,0.00,6,Snow,288
2013-1-13,6,0,-5,3,-3,-9,92,82,72,30.18,30.10,30.03,10,10,3,13,9,,0.00,2,,289
2013-1-14,8,0,-7,5,-3,-11,92,82,72,30.35,30.26,30.19,10,10,7,9,7,,0.00,4,Snow,222
2013-1-15,21,10,0,12,6,-4,92,79,63,30.19,30.01,29.70,10,10,10,23,8,25,0.00,3,,195
2013-1-16,33,16,-2,34,13,-9,100,80,48,30.24,29.86,29.60,10,7,1,21,15,26,0.00,5,Snow,289
2013-1-17,15,6,-2,9,1,-9,85,74,61,30.34,30.29,30.17,10,10,5,14,8,,0.00,5,Snow,255
2013-1-18,33,24,14,27,21,10,100,86,75,30.15,29.82,29.70,10,10,2,17,10,18,0.00,2,Snow,213
2013-1-19,35,16,-4,30,13,-9,100,84,67,30.25,29.89,29.65,10,7,0,44,15,54,0.00,4,Snow,280
2013-1-20,5,-3,-11,0,-9,-18,84,76,66,30.36,30.29,30.25,10,9,1,26,15,30,0.00,1,Snow,290
2013-1-21,-7,-12,-16,-15,-18,-24,84,73,64,30.30,30.26,30.23,10,10,7,21,16,25,0.00,0,,286
2013-1-22,3,-8,-18,-2,-13,-24,85,78,71,30.31,30.25,30.16,10,10,10,8,4,,0.00,3,,223
2013-1-23,5,-3,-11,1,-8,-20,92,73,55,30.57,30.29,30.10,10,9,3,24,9,33,0.00,3,Snow,300
2013-1-24,10,-2,-13,3,-10,-20,78,69,62,30.59,30.37,30.05,10,10,10,25,11,26,0.00,3,Snow,123
2013-1-25,14,4,-7,9,-1,-11,85,78,66,30.27,30.07,29.89,10,8,2,31,16,38,0.00,3,,281
2013-1-26,17,4,-9,10,0,-13,85,78,67,30.28,30.15,30.01,10,10,10,18,9,22,0.00,1,,112
2013-1-27,30,22,14,30,20,9,100,85,73,30.00,29.86,29.77,10,8,2,15,9,,0.06,5,,105
2013-1-28,33,32,30,34,31,28,100,99,93,29.82,29.77,29.62,2,1,0,9,3,,0.03,8,Fog-Snow,158
2013-1-29,30,24,19,30,24,16,100,95,86,29.81,29.68,29.56,10,6,2,20,9,24,0.02,7,Snow,322
2013-1-30,19,10,-2,16,4,-6,92,83,78,29.80,29.76,29.72,10,8,2,26,18,30,0.00,8,Snow,311
2013-1-31,-2,-8,-14,-6,-14,-20,85,77,70,30.24,30.05,29.80,10,6,0,30,21,38,0.00,5,Snow,294